createdAt,value
2022-08-24T00:00:35.074Z,16.04
2022-08-24T00:03:02.424Z,16.01
2022-08-24T00:05:29.664Z,15.96
2022-08-24T00:07:56.410Z,15.88
2022-08-24T00:10:23.284Z,15.84
2022-08-24T00:12:50.981Z,15.75
2022-08-24T00:15:18.149Z,15.69
2022-08-24T00:17:45.451Z,15.63
2022-08-24T00:20:12.795Z,15.55
2022-08-24T00:22:41.090Z,15.56
2022-08-24T00:25:10.641Z,15.51
2022-08-24T00:27:38.666Z,15.50
2022-08-24T00:30:08.698Z,15.56
2022-08-24T00:32:37.821Z,15.53
2022-08-24T00:35:08.851Z,15.59
2022-08-24T00:37:37.037Z,15.55
2022-08-24T00:40:06.814Z,15.43
2022-08-24T00:42:33.833Z,15.39
2022-08-24T00:45:00.625Z,15.37
2022-08-24T00:47:34.769Z,15.32
2022-08-24T00:50:06.846Z,15.32
2022-08-24T00:52:39.645Z,15.31
2022-08-24T00:55:15.769Z,15.29
2022-08-24T00:57:46.857Z,15.25
2022-08-24T01:00:18.371Z,15.23
2022-08-24T01:02:48.956Z,15.17
2022-08-24T01:05:19.167Z,15.16
2022-08-24T01:07:50.591Z,15.15
2022-08-24T01:10:21.068Z,15.14
2022-08-24T01:12:59.880Z,15.08
2022-08-24T01:15:29.134Z,15.08
2022-08-24T01:18:14.846Z,15.03
2022-08-24T01:20:45.986Z,15.02
2022-08-24T01:23:54.673Z,15.04
2022-08-24T01:26:26.460Z,15.04
2022-08-24T01:28:58.060Z,14.95
2022-08-24T01:31:26.639Z,14.86
2022-08-24T01:33:55.088Z,14.82
2022-08-24T01:36:38.074Z,14.73
2022-08-24T01:39:25.341Z,14.60
2022-08-24T01:41:53.581Z,14.56
2022-08-24T01:44:23.318Z,14.49
2022-08-24T01:46:56.468Z,14.39
2022-08-24T01:49:27.056Z,14.43
2022-08-24T01:51:54.097Z,14.48
2022-08-24T01:54:21.143Z,14.46
2022-08-24T01:56:48.044Z,14.47
2022-08-24T01:59:15.628Z,14.44
2022-08-24T02:01:48.906Z,14.40
2022-08-24T02:04:17.558Z,14.39
2022-08-24T02:06:45.490Z,14.37
2022-08-24T02:09:13.465Z,14.34
2022-08-24T02:11:41.843Z,14.35
2022-08-24T02:14:11.849Z,14.35
2022-08-24T02:16:41.284Z,14.38
2022-08-24T02:19:08.687Z,14.36
2022-08-24T02:21:35.861Z,14.37
2022-08-24T02:24:03.017Z,14.36
2022-08-24T02:26:31.351Z,14.37
2022-08-24T02:29:03.466Z,14.36
2022-08-24T02:31:31.518Z,14.37
2022-08-24T02:33:58.467Z,14.34
2022-08-24T02:36:26.692Z,14.31
2022-08-24T02:38:57.503Z,14.26
2022-08-24T02:41:26.019Z,14.25
2022-08-24T02:43:55.227Z,14.23
2022-08-24T02:46:25.966Z,14.22
2022-08-24T02:49:10.112Z,14.24
2022-08-24T02:51:38.777Z,14.25
2022-08-24T02:54:17.550Z,14.27
2022-08-24T02:56:46.092Z,14.26
2022-08-24T02:59:14.093Z,14.24
2022-08-24T03:01:41.360Z,14.24
2022-08-24T03:04:08.421Z,14.22
2022-08-24T03:06:35.158Z,14.19
2022-08-24T03:09:02.212Z,14.19
2022-08-24T03:11:29.183Z,14.19
2022-08-24T03:13:59.467Z,14.19
2022-08-24T03:16:30.508Z,14.15
2022-08-24T03:18:58.325Z,14.09
2022-08-24T03:21:27.442Z,14.05
2022-08-24T03:23:55.844Z,14.04
2022-08-24T03:26:23.221Z,14.08
2022-08-24T03:28:51.182Z,14.04
2022-08-24T03:31:19.470Z,13.98
2022-08-24T03:33:48.055Z,13.98
2022-08-24T03:36:15.461Z,13.94
2022-08-24T03:38:43.433Z,13.93
2022-08-24T03:41:10.912Z,13.92
2022-08-24T03:43:51.743Z,13.91
2022-08-24T03:46:26.294Z,13.91
2022-08-24T03:48:58.295Z,13.93
2022-08-24T03:51:27.965Z,13.88
2022-08-24T03:53:57.249Z,13.87
2022-08-24T03:56:27.463Z,13.86
2022-08-24T03:58:55.192Z,13.88
2022-08-24T04:01:23.564Z,13.86
2022-08-24T04:03:53.478Z,13.79
2022-08-24T04:06:23.415Z,13.73
2022-08-24T04:08:51.348Z,13.71
2022-08-24T04:11:23.788Z,13.68
2022-08-24T04:13:53.907Z,13.61
2022-08-24T04:16:21.628Z,13.61
2022-08-24T04:18:54.515Z,13.58
2022-08-24T04:21:27.630Z,13.61
2022-08-24T04:23:55.407Z,13.65
2022-08-24T04:26:43.356Z,13.68
2022-08-24T04:29:15.844Z,13.68
2022-08-24T04:31:47.908Z,13.69
2022-08-24T04:34:16.787Z,13.72
2022-08-24T04:36:45.233Z,13.76
2022-08-24T04:39:13.321Z,13.80
2022-08-24T04:42:03.199Z,13.78
2022-08-24T04:44:34.929Z,13.77
2022-08-24T04:47:01.956Z,13.73
2022-08-24T04:49:30.658Z,13.71
2022-08-24T04:51:58.419Z,13.69
2022-08-24T04:54:26.286Z,13.73
2022-08-24T04:57:09.421Z,13.75
2022-08-24T04:59:36.701Z,13.75
2022-08-24T05:02:03.581Z,13.82
2022-08-24T05:04:31.209Z,13.87
2022-08-24T05:06:58.669Z,13.96
2022-08-24T05:09:27.127Z,13.99
2022-08-24T05:11:55.673Z,14.08
2022-08-24T05:14:29.069Z,14.14
2022-08-24T05:16:56.668Z,14.17
2022-08-24T05:19:24.233Z,14.23
2022-08-24T05:21:51.201Z,14.28
2022-08-24T05:24:19.670Z,14.31
2022-08-24T05:26:46.942Z,14.42
2022-08-24T05:29:14.698Z,14.56
2022-08-24T05:31:46.873Z,14.73
2022-08-24T05:34:14.927Z,14.95
2022-08-24T05:36:42.656Z,15.16
2022-08-24T05:39:17.719Z,15.28
2022-08-24T05:41:51.302Z,15.42
2022-08-24T05:44:30.837Z,15.57
2022-08-24T05:47:01.516Z,15.75
2022-08-24T05:49:29.557Z,15.94
2022-08-24T05:51:56.296Z,16.15
2022-08-24T05:54:23.586Z,16.35
2022-08-24T05:57:04.718Z,16.56
2022-08-24T05:59:38.091Z,16.81
2022-08-24T06:02:13.340Z,17.10
2022-08-24T06:04:41.124Z,17.31
2022-08-24T06:07:11.722Z,17.41
2022-08-24T06:09:43.037Z,17.58
2022-08-24T06:12:10.406Z,17.76
2022-08-24T06:14:37.295Z,17.95
2022-08-24T06:17:07.975Z,18.11
2022-08-24T06:19:36.258Z,18.08
2022-08-24T06:22:03.780Z,18.13
2022-08-24T06:24:49.864Z,17.94
2022-08-24T06:27:25.564Z,17.93
2022-08-24T06:29:56.029Z,18.18
2022-08-24T06:32:48.705Z,18.34
2022-08-24T06:35:28.466Z,18.58
2022-08-24T06:37:57.527Z,18.95
2022-08-24T06:40:26.004Z,19.25
2022-08-24T06:42:54.066Z,19.43
2022-08-24T06:45:44.912Z,19.16
2022-08-24T06:48:13.762Z,19.08
2022-08-24T06:50:41.023Z,19.28
2022-08-24T06:53:08.701Z,19.29
2022-08-24T06:55:35.726Z,19.19
2022-08-24T06:58:03.248Z,19.23
2022-08-24T07:00:31.155Z,19.48
2022-08-24T07:02:58.205Z,19.71
2022-08-24T07:05:25.613Z,19.84
2022-08-24T07:08:08.150Z,20.07
2022-08-24T07:10:36.453Z,20.08
2022-08-24T07:13:04.107Z,20.17
2022-08-24T07:15:31.258Z,20.39
2022-08-24T07:18:16.403Z,20.42
2022-08-24T07:20:48.008Z,20.67
2022-08-24T07:23:34.575Z,20.64
2022-08-24T07:26:20.969Z,20.65
2022-08-24T07:28:59.545Z,20.68
2022-08-24T07:31:31.013Z,20.60
2022-08-24T07:34:10.565Z,20.71
2022-08-24T07:36:44.317Z,21.20
2022-08-24T07:39:12.638Z,21.41
2022-08-24T07:42:02.510Z,21.73
2022-08-24T07:44:31.200Z,22.23
2022-08-24T07:47:07.085Z,22.35
2022-08-24T07:49:45.632Z,21.87
2022-08-24T07:52:12.507Z,21.57
2022-08-24T07:54:39.278Z,21.53
2022-08-24T07:57:06.756Z,21.65
2022-08-24T07:59:35.946Z,22.04
2022-08-24T08:02:03.186Z,22.29
2022-08-24T08:04:32.073Z,22.09
2022-08-24T08:07:01.739Z,21.61
2022-08-24T08:09:31.559Z,21.37
2022-08-24T08:11:59.368Z,21.45
2022-08-24T08:14:26.359Z,21.59
2022-08-24T08:16:53.954Z,21.72
2022-08-24T08:19:20.744Z,21.97
2022-08-24T08:22:08.591Z,21.99
2022-08-24T08:24:47.988Z,22.13
2022-08-24T08:27:17.604Z,22.37
2022-08-24T08:29:44.674Z,22.87
2022-08-24T08:32:16.989Z,23.31
2022-08-24T08:34:44.927Z,23.08
2022-08-24T08:37:12.590Z,22.86
2022-08-24T08:39:40.710Z,23.20
2022-08-24T08:42:31.635Z,23.57
2022-08-24T08:45:04.439Z,23.31
2022-08-24T08:48:10.770Z,23.35
2022-08-24T08:50:49.179Z,23.26
2022-08-24T08:53:34.716Z,23.22
2022-08-24T08:56:28.628Z,23.43
2022-08-24T08:59:01.796Z,23.52
2022-08-24T09:02:09.304Z,23.41
2022-08-24T09:04:56.500Z,23.23
2022-08-24T09:07:33.025Z,23.37
2022-08-24T09:10:29.072Z,23.38
2022-08-24T09:13:40.940Z,23.39
2022-08-24T09:16:36.123Z,23.72
2022-08-24T09:19:08.869Z,23.58
2022-08-24T09:22:01.021Z,23.63
2022-08-24T09:24:43.748Z,23.67
2022-08-24T09:27:50.369Z,23.90
2022-08-24T09:30:23.890Z,24.24
2022-08-24T09:33:10.407Z,24.06
2022-08-24T09:36:02.343Z,24.34
2022-08-24T09:38:52.395Z,24.42
2022-08-24T09:41:50.273Z,24.31
2022-08-24T09:44:44.907Z,24.68
2022-08-24T09:47:22.859Z,25.65
2022-08-24T09:50:11.041Z,26.37
2022-08-24T09:53:15.045Z,26.88
2022-08-24T09:56:04.097Z,26.88
2022-08-24T09:58:57.961Z,27.23
2022-08-24T10:01:37.837Z,27.34
2022-08-24T10:04:23.347Z,26.47
2022-08-24T10:07:14.875Z,25.73
2022-08-24T10:10:12.820Z,25.64
2022-08-24T10:13:06.055Z,25.42
2022-08-24T10:16:08.763Z,25.41
2022-08-24T10:19:07.197Z,25.74
2022-08-24T10:22:03.027Z,26.46
2022-08-24T10:24:40.444Z,27.15
2022-08-24T10:27:28.040Z,27.08
2022-08-24T10:30:03.545Z,26.78
2022-08-24T10:33:03.983Z,25.87
2022-08-24T10:36:09.219Z,25.86
2022-08-24T10:39:08.532Z,25.98
2022-08-24T10:42:33.177Z,26.14
2022-08-24T10:45:12.911Z,26.76
2022-08-24T10:47:53.589Z,27.06
2022-08-24T10:50:34.296Z,26.81
2022-08-24T10:53:22.721Z,25.89
2022-08-24T10:56:09.618Z,26.09
2022-08-24T10:58:47.514Z,26.78
2022-08-24T11:01:29.382Z,26.90
2022-08-24T11:03:58.193Z,26.61
2022-08-24T11:06:28.841Z,26.15
2022-08-24T11:09:04.705Z,26.20
2022-08-24T11:11:36.339Z,26.20
2022-08-24T11:14:16.008Z,25.80
2022-08-24T11:16:45.793Z,26.30
2022-08-24T11:19:27.903Z,26.45
2022-08-24T11:22:01.958Z,25.98
2022-08-24T11:24:40.117Z,26.02
2022-08-24T11:27:18.705Z,26.47
2022-08-24T11:29:51.763Z,26.35
2022-08-24T11:32:33.784Z,26.53
2022-08-24T11:35:04.302Z,26.77
2022-08-24T11:37:34.776Z,26.90
2022-08-24T11:40:02.486Z,27.10
2022-08-24T11:42:53.045Z,26.72
2022-08-24T11:45:31.777Z,26.83
2022-08-24T11:48:07.014Z,27.19
2022-08-24T11:50:46.119Z,26.68
2022-08-24T11:53:51.470Z,26.76
2022-08-24T11:56:25.996Z,27.69
2022-08-24T11:59:08.009Z,27.51
2022-08-24T12:01:53.621Z,27.00
2022-08-24T12:04:58.460Z,27.51
2022-08-24T12:07:37.493Z,27.64
2022-08-24T12:10:32.744Z,27.48
2022-08-24T12:13:27.764Z,28.31
2022-08-24T12:16:01.159Z,28.66
2022-08-24T12:18:39.116Z,28.11
2022-08-24T12:21:12.589Z,28.33
2022-08-24T12:23:48.911Z,27.87
2022-08-24T12:26:53.265Z,27.70
2022-08-24T12:29:35.711Z,27.67
2022-08-24T12:32:50.479Z,28.33
2022-08-24T12:35:32.678Z,28.45
2022-08-24T12:38:08.381Z,28.00
2022-08-24T12:40:43.096Z,28.10
2022-08-24T12:43:15.157Z,28.52
2022-08-24T12:45:41.943Z,28.52
2022-08-24T12:48:33.361Z,28.73
2022-08-24T12:51:18.461Z,29.24
2022-08-24T12:54:23.690Z,29.30
2022-08-24T12:57:19.805Z,28.84
2022-08-24T12:59:50.205Z,28.24
2022-08-24T13:02:16.894Z,28.62
2022-08-24T13:04:57.476Z,29.30
2022-08-24T13:07:24.111Z,29.71
2022-08-24T13:09:53.964Z,30.01
2022-08-24T13:12:39.142Z,29.97
2022-08-24T13:15:25.513Z,29.72
2022-08-24T13:18:09.555Z,28.98
2022-08-24T13:20:36.702Z,29.15
2022-08-24T13:23:13.111Z,29.16
2022-08-24T13:25:52.046Z,28.91
2022-08-24T13:28:24.521Z,28.44
2022-08-24T13:30:57.309Z,28.69
2022-08-24T13:33:50.008Z,28.83
2022-08-24T13:36:32.522Z,28.51
2022-08-24T13:39:35.996Z,28.17
2022-08-24T13:43:03.149Z,27.83
2022-08-24T13:46:11.331Z,27.63
2022-08-24T13:49:03.555Z,28.04
2022-08-24T13:51:37.232Z,27.84
2022-08-24T13:54:15.195Z,27.88
2022-08-24T13:56:50.057Z,27.11
2022-08-24T13:59:54.590Z,27.51
2022-08-24T14:03:03.707Z,27.79
2022-08-24T14:05:47.263Z,28.29
2022-08-24T14:08:32.710Z,28.06
2022-08-24T14:11:23.877Z,27.63
2022-08-24T14:13:56.540Z,27.78
2022-08-24T14:17:25.499Z,27.74
2022-08-24T14:20:09.369Z,27.92
2022-08-24T14:22:36.014Z,27.92
2022-08-24T14:25:22.288Z,27.65
2022-08-24T14:28:31.850Z,27.62
2022-08-24T14:31:17.482Z,27.73
2022-08-24T14:33:57.756Z,27.03
2022-08-24T14:36:55.065Z,26.66
2022-08-24T14:39:33.550Z,26.77
2022-08-24T14:42:12.465Z,26.70
2022-08-24T14:44:57.546Z,26.73
2022-08-24T14:47:49.418Z,26.71
2022-08-24T14:50:24.105Z,26.47
2022-08-24T14:53:03.739Z,26.15
2022-08-24T14:55:40.078Z,26.14
2022-08-24T14:58:15.748Z,26.44
2022-08-24T15:01:14.777Z,26.26
2022-08-24T15:03:53.706Z,26.21
2022-08-24T15:06:39.392Z,26.40
2022-08-24T15:09:35.588Z,26.57
2022-08-24T15:12:22.151Z,26.44
2022-08-24T15:14:55.380Z,26.27
2022-08-24T15:17:29.042Z,26.11
2022-08-24T15:20:14.213Z,26.03
2022-08-24T15:23:02.515Z,25.84
2022-08-24T15:25:37.945Z,26.06
2022-08-24T15:28:24.113Z,26.05
2022-08-24T15:31:01.572Z,26.07
2022-08-24T15:33:30.444Z,26.01
2022-08-24T15:36:06.187Z,25.74
2022-08-24T15:38:36.177Z,25.49
2022-08-24T15:41:28.807Z,25.44
2022-08-24T15:44:20.625Z,25.40
2022-08-24T15:46:57.370Z,25.45
2022-08-24T15:49:28.915Z,25.47
2022-08-24T15:52:00.580Z,25.47
2022-08-24T15:54:33.859Z,25.41
2022-08-24T15:57:18.859Z,25.34
2022-08-24T15:59:50.537Z,25.43
2022-08-24T16:02:33.314Z,25.46
2022-08-24T16:05:25.516Z,25.51
2022-08-24T16:08:07.235Z,25.46
2022-08-24T16:10:44.992Z,25.29
2022-08-24T16:13:17.835Z,25.04
2022-08-24T16:15:45.918Z,24.88
2022-08-24T16:18:12.973Z,24.81
2022-08-24T16:20:40.449Z,24.79
2022-08-24T16:23:11.379Z,24.75
2022-08-24T16:25:51.063Z,24.77
2022-08-24T16:28:21.490Z,24.74
2022-08-24T16:30:58.421Z,24.67
2022-08-24T16:33:43.338Z,24.63
2022-08-24T16:36:18.089Z,24.61
2022-08-24T16:38:50.607Z,24.71
2022-08-24T16:41:21.333Z,24.71
2022-08-24T16:43:49.077Z,24.60
2022-08-24T16:46:20.734Z,24.59
2022-08-24T16:48:47.483Z,24.48
2022-08-24T16:51:14.424Z,24.44
2022-08-24T16:53:41.129Z,24.48
2022-08-24T16:56:08.941Z,24.46
2022-08-24T16:58:37.048Z,24.44
2022-08-24T17:01:05.305Z,24.43
2022-08-24T17:03:32.194Z,24.38
2022-08-24T17:05:59.115Z,24.38
2022-08-24T17:08:27.426Z,24.35
2022-08-24T17:10:55.409Z,24.36
2022-08-24T17:13:46.277Z,24.31
2022-08-24T17:16:11.683Z,24.27
2022-08-24T17:18:38.957Z,24.22
2022-08-24T17:21:06.189Z,24.16
2022-08-24T17:23:33.944Z,24.13
2022-08-24T17:26:02.260Z,24.13
2022-08-24T17:28:29.337Z,24.05
2022-08-24T17:30:56.214Z,23.97
2022-08-24T17:33:22.969Z,23.86
2022-08-24T17:35:54.418Z,23.84
2022-08-24T17:38:21.636Z,23.72
2022-08-24T17:40:49.927Z,23.59
2022-08-24T17:43:16.625Z,23.48
2022-08-24T17:45:43.555Z,23.39
2022-08-24T17:48:17.057Z,23.31
2022-08-24T17:50:44.920Z,23.19
2022-08-24T17:53:11.835Z,23.04
2022-08-24T17:55:38.709Z,22.99
2022-08-24T17:58:05.494Z,22.92
2022-08-24T18:00:32.288Z,22.87
2022-08-24T18:02:59.258Z,22.79
2022-08-24T18:05:26.125Z,22.79
2022-08-24T18:07:55.423Z,22.76
2022-08-24T18:10:25.644Z,22.66
2022-08-24T18:12:53.383Z,22.56
2022-08-24T18:15:20.468Z,22.53
2022-08-24T18:17:50.032Z,22.48
2022-08-24T18:20:21.658Z,22.44
2022-08-24T18:22:50.755Z,22.38
2022-08-24T18:25:23.314Z,22.30
2022-08-24T18:27:53.927Z,22.24
2022-08-24T18:30:24.655Z,22.23
2022-08-24T18:32:55.792Z,22.21
2022-08-24T18:35:22.842Z,22.20
2022-08-24T18:37:50.150Z,22.17
2022-08-24T18:40:21.574Z,22.12
2022-08-24T18:42:50.734Z,22.06
2022-08-24T18:45:17.778Z,22.00
2022-08-24T18:47:44.587Z,21.88
2022-08-24T18:50:19.923Z,21.81
2022-08-24T18:52:46.828Z,21.76
2022-08-24T18:55:14.005Z,21.73
2022-08-24T18:57:40.729Z,21.72
2022-08-24T19:00:08.656Z,21.68
2022-08-24T19:02:36.012Z,21.64
2022-08-24T19:05:06.783Z,21.63
2022-08-24T19:07:36.732Z,21.59
2022-08-24T19:10:05.680Z,21.56
2022-08-24T19:12:36.613Z,21.52
2022-08-24T19:15:03.707Z,21.48
2022-08-24T19:17:31.167Z,21.42
2022-08-24T19:19:58.086Z,21.36
2022-08-24T19:22:26.031Z,21.26
2022-08-24T19:24:54.061Z,21.31
2022-08-24T19:27:21.097Z,21.33
2022-08-24T19:29:56.251Z,21.31
2022-08-24T19:32:26.263Z,21.26
2022-08-24T19:34:54.424Z,21.24
2022-08-24T19:37:21.747Z,21.23
2022-08-24T19:39:51.002Z,21.19
2022-08-24T19:42:18.402Z,21.17
2022-08-24T19:45:04.435Z,21.10
2022-08-24T19:47:34.594Z,21.02
2022-08-24T19:50:03.275Z,20.94
2022-08-24T19:52:32.478Z,20.83
2022-08-24T19:54:59.496Z,20.70
2022-08-24T19:57:41.579Z,20.63
2022-08-24T20:00:24.775Z,20.62
2022-08-24T20:02:54.192Z,20.60
2022-08-24T20:05:23.324Z,20.59
2022-08-24T20:07:50.730Z,20.51
2022-08-24T20:10:20.626Z,20.44
2022-08-24T20:12:47.431Z,20.41
2022-08-24T20:15:14.373Z,20.38
2022-08-24T20:17:41.476Z,20.34
2022-08-24T20:20:10.615Z,20.29
2022-08-24T20:22:38.192Z,20.20
2022-08-24T20:25:06.109Z,20.22
2022-08-24T20:27:33.035Z,20.18
2022-08-24T20:30:00.250Z,20.18
2022-08-24T20:32:29.388Z,20.17
2022-08-24T20:34:56.100Z,20.12
2022-08-24T20:37:25.977Z,20.06
2022-08-24T20:39:57.172Z,20.00
2022-08-24T20:42:26.714Z,19.90
2022-08-24T20:44:54.791Z,19.87
2022-08-24T20:47:22.348Z,19.90
2022-08-24T20:49:49.620Z,19.91
2022-08-24T20:52:16.461Z,19.93
2022-08-24T20:54:43.725Z,19.93
2022-08-24T20:57:17.340Z,19.95
2022-08-24T20:59:45.212Z,19.92
2022-08-24T21:02:12.091Z,19.91
2022-08-24T21:04:38.830Z,19.97
2022-08-24T21:07:08.565Z,19.89
2022-08-24T21:09:35.320Z,19.89
2022-08-24T21:12:02.080Z,19.92
2022-08-24T21:14:29.009Z,19.91
2022-08-24T21:16:59.265Z,19.94
2022-08-24T21:19:26.101Z,19.96
2022-08-24T21:21:52.993Z,20.03
2022-08-24T21:24:19.861Z,19.96
2022-08-24T21:26:46.836Z,19.98
2022-08-24T21:29:13.688Z,19.93
2022-08-24T21:31:40.500Z,19.95
2022-08-24T21:34:26.630Z,19.93
2022-08-24T21:36:54.835Z,19.94
2022-08-24T21:39:21.636Z,19.93
2022-08-24T21:41:48.393Z,19.92
2022-08-24T21:44:15.184Z,19.91
2022-08-24T21:46:42.006Z,19.90
2022-08-24T21:49:12.038Z,19.92
2022-08-24T21:51:40.436Z,19.84
2022-08-24T21:54:07.374Z,19.79
2022-08-24T21:56:34.549Z,19.60
2022-08-24T21:59:01.818Z,19.49
2022-08-24T22:01:29.050Z,19.42
2022-08-24T22:03:58.454Z,19.31
2022-08-24T22:06:31.098Z,19.33
2022-08-24T22:08:59.056Z,19.36
2022-08-24T22:11:25.883Z,19.27
2022-08-24T22:13:53.772Z,19.26
2022-08-24T22:16:21.956Z,19.30
2022-08-24T22:18:49.574Z,19.32
2022-08-24T22:21:20.433Z,19.31
2022-08-24T22:23:47.159Z,19.31
2022-08-24T22:26:13.940Z,19.23
2022-08-24T22:28:42.599Z,19.22
2022-08-24T22:31:19.674Z,19.18
2022-08-24T22:33:46.740Z,19.24
2022-08-24T22:36:15.668Z,19.31
2022-08-24T22:38:43.360Z,19.30
2022-08-24T22:41:10.479Z,19.22
2022-08-24T22:43:56.735Z,19.14
2022-08-24T22:46:25.198Z,18.99
2022-08-24T22:48:52.684Z,18.89
2022-08-24T22:51:20.259Z,18.82
2022-08-24T22:53:49.122Z,18.79
2022-08-24T22:56:20.324Z,18.76
2022-08-24T22:58:48.051Z,18.70
2022-08-24T23:01:24.916Z,18.70
2022-08-24T23:03:53.538Z,18.60
2022-08-24T23:06:21.633Z,18.58
2022-08-24T23:08:48.851Z,18.60
2022-08-24T23:11:16.070Z,18.58
2022-08-24T23:13:43.149Z,18.58
2022-08-24T23:16:12.683Z,18.57
2022-08-24T23:19:15.342Z,18.50
2022-08-24T23:21:42.458Z,18.43
2022-08-24T23:24:11.046Z,18.43
2022-08-24T23:26:38.889Z,18.35
2022-08-24T23:29:07.136Z,18.33
2022-08-24T23:31:33.984Z,18.34
2022-08-24T23:34:01.097Z,18.38
2022-08-24T23:36:28.238Z,18.44
2022-08-24T23:38:57.037Z,18.53
2022-08-24T23:41:26.699Z,18.59
2022-08-24T23:43:54.976Z,18.66
2022-08-24T23:46:22.810Z,18.72
2022-08-24T23:48:55.384Z,18.72
2022-08-24T23:51:23.425Z,18.73
2022-08-24T23:53:51.115Z,18.71
2022-08-24T23:56:32.651Z,18.67
2022-08-24T23:59:06.524Z,18.67
